createdAt,value
2023-03-26T00:00:08.692Z,100.00
2023-03-26T00:01:17.619Z,100.00
2023-03-26T00:02:19.262Z,100.00
2023-03-26T00:03:21.307Z,100.00
2023-03-26T00:04:22.850Z,100.00
2023-03-26T00:05:24.456Z,100.00
2023-03-26T00:06:28.432Z,100.00
2023-03-26T00:07:29.968Z,100.00
2023-03-26T00:08:31.558Z,100.00
2023-03-26T00:09:33.160Z,100.00
2023-03-26T00:10:35.881Z,100.00
2023-03-26T00:11:37.546Z,100.00
2023-03-26T00:12:39.180Z,100.00
2023-03-26T00:13:41.234Z,100.00
2023-03-26T00:14:42.781Z,100.00
2023-03-26T00:15:44.352Z,100.00
2023-03-26T00:16:45.935Z,100.00
2023-03-26T00:17:47.546Z,100.00
2023-03-26T00:18:49.246Z,100.00
2023-03-26T00:19:50.798Z,100.00
2023-03-26T00:20:52.386Z,100.00
2023-03-26T00:21:53.909Z,100.00
2023-03-26T00:22:56.150Z,100.00
2023-03-26T00:24:00.243Z,100.00
2023-03-26T00:25:01.801Z,100.00
2023-03-26T00:26:04.209Z,100.00
2023-03-26T00:27:06.128Z,100.00
2023-03-26T00:28:08.419Z,100.00
2023-03-26T00:29:10.390Z,100.00
2023-03-26T00:30:12.465Z,100.00
2023-03-26T00:31:15.016Z,100.00
2023-03-26T00:32:16.580Z,100.00
2023-03-26T00:33:18.148Z,100.00
2023-03-26T00:34:19.738Z,100.00
2023-03-26T00:35:21.424Z,100.00
2023-03-26T00:36:24.677Z,100.00
2023-03-26T00:37:26.385Z,100.00
2023-03-26T00:38:28.896Z,100.00
2023-03-26T00:39:30.418Z,100.00
2023-03-26T00:40:32.053Z,100.00
2023-03-26T00:41:34.046Z,100.00
2023-03-26T00:42:35.605Z,100.00
2023-03-26T00:43:37.148Z,100.00
2023-03-26T00:44:38.751Z,100.00
2023-03-26T00:45:40.349Z,100.00
2023-03-26T00:46:42.404Z,100.00
2023-03-26T00:47:44.038Z,100.00
2023-03-26T00:48:46.443Z,100.00
2023-03-26T00:49:48.075Z,100.00
2023-03-26T00:50:50.424Z,100.00
2023-03-26T00:51:52.614Z,100.00
2023-03-26T00:52:54.166Z,100.00
2023-03-26T00:53:57.492Z,100.00
2023-03-26T00:54:59.215Z,100.00
2023-03-26T00:56:00.760Z,100.00
2023-03-26T00:57:02.436Z,100.00
2023-03-26T00:58:04.121Z,100.00
2023-03-26T00:59:05.726Z,100.00
2023-03-26T01:00:10.490Z,100.00
2023-03-26T01:01:15.234Z,100.00
2023-03-26T01:02:19.418Z,100.00
2023-03-26T01:03:27.717Z,100.00
2023-03-26T01:04:33.137Z,100.00
2023-03-26T01:05:34.770Z,100.00
2023-03-26T01:06:39.890Z,100.00
2023-03-26T01:07:41.876Z,100.00
2023-03-26T01:08:44.614Z,100.00
2023-03-26T01:09:47.437Z,100.00
2023-03-26T01:10:50.201Z,100.00
2023-03-26T01:11:52.061Z,100.00
2023-03-26T01:12:53.811Z,100.00
2023-03-26T01:14:17.263Z,100.00
2023-03-26T01:15:19.233Z,100.00
2023-03-26T01:16:36.748Z,100.00
2023-03-26T01:17:38.808Z,100.00
2023-03-26T01:18:40.373Z,100.00
2023-03-26T01:19:50.068Z,100.00
2023-03-26T01:20:54.131Z,100.00
2023-03-26T01:21:57.965Z,100.00
2023-03-26T01:23:03.289Z,100.00
2023-03-26T01:24:06.637Z,100.00
2023-03-26T01:25:08.500Z,100.00
2023-03-26T01:26:25.324Z,100.00
2023-03-26T01:27:39.150Z,100.00
2023-03-26T01:28:41.529Z,100.00
2023-03-26T01:29:52.769Z,100.00
2023-03-26T01:31:12.734Z,100.00
2023-03-26T01:32:24.863Z,100.00
2023-03-26T01:33:54.705Z,100.00
2023-03-26T01:35:07.250Z,100.00
2023-03-26T01:36:20.893Z,100.00
2023-03-26T01:37:37.518Z,100.00
2023-03-26T01:39:00.699Z,100.00
2023-03-26T01:40:46.574Z,100.00
2023-03-26T01:41:53.462Z,100.00
2023-03-26T01:43:11.348Z,100.00
2023-03-26T01:44:34.708Z,100.00
2023-03-26T01:45:39.709Z,100.00
2023-03-26T01:46:42.670Z,100.00
2023-03-26T01:47:46.319Z,100.00
2023-03-26T01:48:48.320Z,100.00
2023-03-26T01:49:49.948Z,100.00
2023-03-26T01:50:51.620Z,100.00
2023-03-26T01:51:53.177Z,100.00
2023-03-26T01:52:54.768Z,100.00
2023-03-26T01:53:57.546Z,100.00
2023-03-26T01:54:59.237Z,100.00
2023-03-26T01:56:11.916Z,100.00
2023-03-26T01:57:35.137Z,100.00
2023-03-26T01:59:00.663Z,100.00
2023-03-26T02:00:31.268Z,100.00
2023-03-26T02:01:43.528Z,100.00
2023-03-26T02:03:06.624Z,100.00
2023-03-26T02:04:23.223Z,100.00
2023-03-26T02:05:50.096Z,100.00
2023-03-26T02:07:00.004Z,100.00
2023-03-26T02:08:19.572Z,100.00
2023-03-26T02:09:28.082Z,100.00
2023-03-26T02:10:33.804Z,100.00
2023-03-26T02:11:38.522Z,100.00
2023-03-26T02:12:42.783Z,100.00
2023-03-26T02:13:46.012Z,100.00
2023-03-26T02:14:48.160Z,100.00
2023-03-26T02:16:01.525Z,100.00
2023-03-26T02:17:03.169Z,100.00
2023-03-26T02:18:05.175Z,100.00
2023-03-26T02:19:07.282Z,100.00
2023-03-26T02:20:12.558Z,100.00
2023-03-26T02:21:20.577Z,100.00
2023-03-26T02:22:22.974Z,100.00
2023-03-26T02:23:24.643Z,100.00
2023-03-26T02:24:26.711Z,100.00
2023-03-26T02:25:30.985Z,100.00
2023-03-26T02:26:35.073Z,100.00
2023-03-26T02:27:46.704Z,100.00
2023-03-26T02:28:48.478Z,100.00
2023-03-26T02:29:50.675Z,100.00
2023-03-26T02:30:56.270Z,100.00
2023-03-26T02:31:59.194Z,100.00
2023-03-26T02:33:00.848Z,100.00
2023-03-26T02:34:10.394Z,100.00
2023-03-26T02:35:14.411Z,100.00
2023-03-26T02:36:16.335Z,100.00
2023-03-26T02:37:18.777Z,100.00
2023-03-26T02:38:23.408Z,100.00
2023-03-26T02:39:25.485Z,100.00
2023-03-26T02:40:33.125Z,100.00
2023-03-26T02:41:34.803Z,100.00
2023-03-26T02:42:43.318Z,100.00
2023-03-26T02:43:45.028Z,100.00
2023-03-26T02:44:50.477Z,100.00
2023-03-26T02:46:14.644Z,100.00
2023-03-26T02:47:31.696Z,100.00
2023-03-26T02:48:53.227Z,100.00
2023-03-26T02:49:59.759Z,100.00
2023-03-26T02:51:16.909Z,100.00
2023-03-26T02:52:27.976Z,100.00
2023-03-26T02:53:32.120Z,100.00
2023-03-26T02:54:52.488Z,100.00
2023-03-26T02:55:57.249Z,100.00
2023-03-26T02:57:00.139Z,100.00
2023-03-26T02:58:21.837Z,100.00
2023-03-26T02:59:23.441Z,100.00
2023-03-26T03:00:41.615Z,100.00
2023-03-26T03:02:06.283Z,100.00
2023-03-26T03:03:09.003Z,100.00
2023-03-26T03:04:29.114Z,100.00
2023-03-26T03:05:32.583Z,100.00
2023-03-26T03:06:49.320Z,100.00
2023-03-26T03:07:50.947Z,100.00
2023-03-26T03:08:52.507Z,100.00
2023-03-26T03:10:14.686Z,100.00
2023-03-26T03:11:37.574Z,100.00
2023-03-26T03:12:40.949Z,100.00
2023-03-26T03:13:43.728Z,100.00
2023-03-26T03:14:45.823Z,100.00
2023-03-26T03:15:47.460Z,100.00
2023-03-26T03:16:49.132Z,100.00
2023-03-26T03:17:50.955Z,100.00
2023-03-26T03:18:53.729Z,100.00
2023-03-26T03:19:56.568Z,100.00
2023-03-26T03:20:58.418Z,100.00
2023-03-26T03:22:00.015Z,100.00
2023-03-26T03:23:02.040Z,100.00
2023-03-26T03:24:04.937Z,100.00
2023-03-26T03:25:12.360Z,100.00
2023-03-26T03:26:17.494Z,100.00
2023-03-26T03:27:25.570Z,100.00
2023-03-26T03:28:36.183Z,100.00
2023-03-26T03:29:37.850Z,100.00
2023-03-26T03:31:15.851Z,100.00
2023-03-26T03:32:17.653Z,100.00
2023-03-26T03:33:22.393Z,100.00
2023-03-26T03:34:24.096Z,100.00
2023-03-26T03:35:26.943Z,100.00
2023-03-26T03:36:32.098Z,100.00
2023-03-26T03:37:40.871Z,100.00
2023-03-26T03:38:43.852Z,100.00
2023-03-26T03:39:47.411Z,100.00
2023-03-26T03:40:53.276Z,100.00
2023-03-26T03:41:55.164Z,100.00
2023-03-26T03:42:57.143Z,100.00
2023-03-26T03:44:08.020Z,100.00
2023-03-26T03:45:10.486Z,100.00
2023-03-26T03:46:30.831Z,100.00
2023-03-26T03:47:32.683Z,100.00
2023-03-26T03:48:34.286Z,100.00
2023-03-26T03:49:36.006Z,100.00
2023-03-26T03:50:37.648Z,100.00
2023-03-26T03:52:00.426Z,100.00
2023-03-26T03:53:08.665Z,100.00
2023-03-26T03:54:10.444Z,100.00
2023-03-26T03:55:20.688Z,100.00
2023-03-26T03:56:27.503Z,100.00
2023-03-26T03:57:51.718Z,100.00
2023-03-26T03:58:55.416Z,100.00
2023-03-26T04:00:06.857Z,100.00
2023-03-26T04:01:17.011Z,100.00
2023-03-26T04:02:44.724Z,100.00
2023-03-26T04:03:47.005Z,100.00
2023-03-26T04:04:50.217Z,100.00
2023-03-26T04:05:55.172Z,100.00
2023-03-26T04:06:59.576Z,100.00
2023-03-26T04:08:06.973Z,100.00
2023-03-26T04:09:29.416Z,100.00
2023-03-26T04:10:35.203Z,100.00
2023-03-26T04:11:55.415Z,100.00
2023-03-26T04:13:05.711Z,100.00
2023-03-26T04:14:23.004Z,100.00
2023-03-26T04:15:50.559Z,100.00
2023-03-26T04:16:52.847Z,100.00
2023-03-26T04:17:54.565Z,100.00
2023-03-26T04:18:56.804Z,100.00
2023-03-26T04:19:58.621Z,100.00
2023-03-26T04:21:05.690Z,100.00
2023-03-26T04:22:07.494Z,100.00
2023-03-26T04:23:16.996Z,100.00
2023-03-26T04:24:21.023Z,100.00
2023-03-26T04:26:01.706Z,100.00
2023-03-26T04:27:20.168Z,100.00
2023-03-26T04:28:40.642Z,100.00
2023-03-26T04:29:55.132Z,100.00
2023-03-26T04:31:01.436Z,100.00
2023-03-26T04:32:19.860Z,100.00
2023-03-26T04:33:21.771Z,100.00
2023-03-26T04:34:24.428Z,100.00
2023-03-26T04:35:35.783Z,100.00
2023-03-26T04:36:39.842Z,100.00
2023-03-26T04:37:43.119Z,100.00
2023-03-26T04:39:05.060Z,100.00
2023-03-26T04:40:38.776Z,100.00
2023-03-26T04:42:15.616Z,100.00
2023-03-26T04:43:32.373Z,100.00
2023-03-26T04:44:42.840Z,100.00
2023-03-26T04:45:46.987Z,100.00
2023-03-26T04:46:49.931Z,100.00
2023-03-26T04:47:58.308Z,100.00
2023-03-26T04:49:00.613Z,100.00
2023-03-26T04:50:09.531Z,100.00
2023-03-26T04:51:14.389Z,100.00
2023-03-26T04:52:16.376Z,100.00
2023-03-26T04:53:36.692Z,100.00
2023-03-26T04:55:19.521Z,100.00
2023-03-26T04:56:30.279Z,100.00
2023-03-26T04:57:44.997Z,100.00
2023-03-26T04:58:58.686Z,100.00
2023-03-26T05:00:00.612Z,100.00
2023-03-26T05:01:10.406Z,100.00
2023-03-26T05:02:16.037Z,100.00
2023-03-26T05:03:30.271Z,100.00
2023-03-26T05:04:32.430Z,100.00
2023-03-26T05:05:34.026Z,100.00
2023-03-26T05:06:35.692Z,100.00
2023-03-26T05:07:43.923Z,100.00
2023-03-26T05:08:48.213Z,100.00
2023-03-26T05:10:08.403Z,100.00
2023-03-26T05:11:22.920Z,100.00
2023-03-26T05:12:24.897Z,100.00
2023-03-26T05:13:31.480Z,100.00
2023-03-26T05:14:38.071Z,100.00
2023-03-26T05:15:42.061Z,100.00
2023-03-26T05:17:06.722Z,100.00
2023-03-26T05:18:08.344Z,100.00
2023-03-26T05:19:15.991Z,100.00
2023-03-26T05:20:23.753Z,100.00
2023-03-26T05:21:26.288Z,100.00
2023-03-26T05:22:27.876Z,100.00
2023-03-26T05:23:44.267Z,100.00
2023-03-26T05:24:52.049Z,100.00
2023-03-26T05:25:53.990Z,100.00
2023-03-26T05:26:58.676Z,100.00
2023-03-26T05:28:01.917Z,100.00
2023-03-26T05:29:35.678Z,100.00
2023-03-26T05:30:37.611Z,100.00
2023-03-26T05:31:39.209Z,100.00
2023-03-26T05:32:41.036Z,100.00
2023-03-26T05:33:43.668Z,100.00
2023-03-26T05:34:47.419Z,100.00
2023-03-26T05:35:59.199Z,100.00
2023-03-26T05:37:03.243Z,100.00
2023-03-26T05:38:18.308Z,100.00
2023-03-26T05:39:19.965Z,100.00
2023-03-26T05:40:41.786Z,100.00
2023-03-26T05:41:47.440Z,100.00
2023-03-26T05:42:49.132Z,100.00
2023-03-26T05:44:05.007Z,100.00
2023-03-26T05:45:09.482Z,100.00
2023-03-26T05:46:12.447Z,100.00
2023-03-26T05:47:14.078Z,100.00
2023-03-26T05:48:15.629Z,100.00
2023-03-26T05:49:17.428Z,100.00
2023-03-26T05:50:19.053Z,100.00
2023-03-26T05:51:21.560Z,100.00
2023-03-26T05:52:32.526Z,100.00
2023-03-26T05:53:52.565Z,100.00
2023-03-26T05:55:12.802Z,100.00
2023-03-26T05:56:32.981Z,100.00
2023-03-26T05:57:54.112Z,100.00
2023-03-26T05:59:15.896Z,100.00
2023-03-26T06:00:20.264Z,100.00
2023-03-26T06:01:21.892Z,100.00
2023-03-26T06:02:41.944Z,100.00
2023-03-26T06:04:02.480Z,100.00
2023-03-26T06:05:09.224Z,100.00
2023-03-26T06:06:33.103Z,100.00
2023-03-26T06:07:35.217Z,100.00
2023-03-26T06:09:01.675Z,100.00
2023-03-26T06:10:05.568Z,100.00
2023-03-26T06:11:07.270Z,100.00
2023-03-26T06:12:11.447Z,100.00
2023-03-26T06:13:14.517Z,100.00
2023-03-26T06:14:16.206Z,100.00
2023-03-26T06:15:37.154Z,100.00
2023-03-26T06:16:48.985Z,100.00
2023-03-26T06:17:55.427Z,100.00
2023-03-26T06:19:15.607Z,100.00
2023-03-26T06:20:43.050Z,100.00
2023-03-26T06:21:55.220Z,100.00
2023-03-26T06:23:00.726Z,100.00
2023-03-26T06:24:21.083Z,100.00
2023-03-26T06:25:38.983Z,100.00
2023-03-26T06:27:00.874Z,100.00
2023-03-26T06:28:28.586Z,100.00
2023-03-26T06:29:40.702Z,100.00
2023-03-26T06:30:48.156Z,100.00
2023-03-26T06:32:25.476Z,100.00
2023-03-26T06:33:41.323Z,100.00
2023-03-26T06:34:44.115Z,100.00
2023-03-26T06:35:45.906Z,100.00
2023-03-26T06:36:49.220Z,99.45
2023-03-26T06:37:50.822Z,97.31
2023-03-26T06:38:52.416Z,95.85
2023-03-26T06:39:53.974Z,94.41
2023-03-26T06:41:07.561Z,91.78
2023-03-26T06:43:07.816Z,89.43
2023-03-26T06:44:21.228Z,88.08
2023-03-26T06:45:43.057Z,86.15
2023-03-26T06:47:03.302Z,85.16
2023-03-26T06:48:24.795Z,83.35
2023-03-26T06:49:50.248Z,82.32
2023-03-26T06:51:14.008Z,80.99
2023-03-26T06:52:34.074Z,81.87
2023-03-26T06:53:48.034Z,82.13
2023-03-26T06:55:12.891Z,82.03
2023-03-26T06:56:36.696Z,82.94
2023-03-26T06:58:01.414Z,82.66
2023-03-26T06:59:35.271Z,82.28
2023-03-26T07:00:56.474Z,81.19
2023-03-26T07:02:18.546Z,80.03
2023-03-26T07:03:38.827Z,78.87
2023-03-26T07:04:59.145Z,80.82
2023-03-26T07:06:19.352Z,82.34
2023-03-26T07:07:46.174Z,82.23
2023-03-26T07:09:11.704Z,83.37
2023-03-26T07:10:33.463Z,83.99
2023-03-26T07:12:10.109Z,85.11
2023-03-26T07:13:37.919Z,85.60
2023-03-26T07:15:08.816Z,87.69
2023-03-26T07:16:45.828Z,88.87
2023-03-26T07:18:06.060Z,90.08
2023-03-26T07:19:10.113Z,90.16
2023-03-26T07:20:14.287Z,90.70
2023-03-26T07:21:17.153Z,93.21
2023-03-26T07:22:24.455Z,92.16
2023-03-26T07:23:44.770Z,92.09
2023-03-26T07:25:05.979Z,93.51
2023-03-26T07:26:54.106Z,92.55
2023-03-26T07:28:21.011Z,92.34
2023-03-26T07:29:50.765Z,91.77
2023-03-26T07:31:24.667Z,91.90
2023-03-26T07:33:03.804Z,92.52
2023-03-26T07:34:44.014Z,89.96
2023-03-26T07:36:25.060Z,89.48
2023-03-26T07:38:16.998Z,87.70
2023-03-26T07:40:08.562Z,88.94
2023-03-26T07:42:16.794Z,88.52
2023-03-26T07:44:14.073Z,89.12
2023-03-26T07:45:44.318Z,91.90
2023-03-26T07:47:02.087Z,91.99
2023-03-26T07:48:22.626Z,91.85
2023-03-26T07:49:55.215Z,91.54
2023-03-26T07:51:20.580Z,92.17
2023-03-26T07:52:29.442Z,91.89
2023-03-26T07:53:48.082Z,91.75
2023-03-26T07:55:12.364Z,90.16
2023-03-26T07:56:45.963Z,90.46
2023-03-26T07:58:30.968Z,92.57
2023-03-26T07:59:56.765Z,91.46
2023-03-26T08:01:25.988Z,91.04
2023-03-26T08:02:54.833Z,93.25
2023-03-26T08:04:43.002Z,90.46
2023-03-26T08:06:37.805Z,89.32
2023-03-26T08:08:25.769Z,91.80
2023-03-26T08:10:17.109Z,93.10
2023-03-26T08:11:56.449Z,93.79
2023-03-26T08:13:12.612Z,93.03
2023-03-26T08:14:36.011Z,93.01
2023-03-26T08:15:52.627Z,93.24
2023-03-26T08:17:00.817Z,92.65
2023-03-26T08:18:24.012Z,92.26
2023-03-26T08:19:48.034Z,92.36
2023-03-26T08:20:54.035Z,93.45
2023-03-26T08:22:19.891Z,91.98
2023-03-26T08:23:50.392Z,90.36
2023-03-26T08:24:55.689Z,89.42
2023-03-26T08:26:17.220Z,90.98
2023-03-26T08:27:43.888Z,90.37
2023-03-26T08:29:06.584Z,90.82
2023-03-26T08:30:22.680Z,91.56
2023-03-26T08:31:33.394Z,91.17
2023-03-26T08:32:35.442Z,92.23
2023-03-26T08:33:38.424Z,92.96
2023-03-26T08:34:40.127Z,93.06
2023-03-26T08:35:41.867Z,93.01
2023-03-26T08:36:43.486Z,92.94
2023-03-26T08:37:45.062Z,93.32
2023-03-26T08:38:47.031Z,93.51
2023-03-26T08:39:48.734Z,92.56
2023-03-26T08:41:12.008Z,93.54
2023-03-26T08:42:19.345Z,94.38
2023-03-26T08:43:48.718Z,94.14
2023-03-26T08:45:08.648Z,94.39
2023-03-26T08:46:34.452Z,95.38
2023-03-26T08:48:09.874Z,96.47
2023-03-26T08:49:25.250Z,95.44
2023-03-26T08:50:40.067Z,95.09
2023-03-26T08:52:00.210Z,96.25
2023-03-26T08:53:16.597Z,96.24
2023-03-26T08:55:08.571Z,96.11
2023-03-26T08:56:29.380Z,95.26
2023-03-26T08:57:57.350Z,96.01
2023-03-26T08:58:58.838Z,96.54
2023-03-26T09:00:15.244Z,96.59
2023-03-26T09:01:43.540Z,97.19
2023-03-26T09:03:19.153Z,95.57
2023-03-26T09:04:39.695Z,94.25
2023-03-26T09:05:44.340Z,95.64
2023-03-26T09:07:00.789Z,95.91
2023-03-26T09:08:24.338Z,94.32
2023-03-26T09:09:59.753Z,92.55
2023-03-26T09:11:32.466Z,91.57
2023-03-26T09:13:05.254Z,91.24
2023-03-26T09:14:06.773Z,91.08
2023-03-26T09:15:23.761Z,90.70
2023-03-26T09:16:44.185Z,90.51
2023-03-26T09:18:17.614Z,92.51
2023-03-26T09:19:35.802Z,90.42
2023-03-26T09:20:52.605Z,92.09
2023-03-26T09:22:15.350Z,92.21
2023-03-26T09:23:50.678Z,91.64
2023-03-26T09:25:13.874Z,89.39
2023-03-26T09:26:18.231Z,89.44
2023-03-26T09:27:54.028Z,90.60
2023-03-26T09:29:20.290Z,90.14
2023-03-26T09:30:58.648Z,89.78
2023-03-26T09:32:19.441Z,90.67
2023-03-26T09:33:45.836Z,90.63
2023-03-26T09:34:56.483Z,89.67
2023-03-26T09:36:20.077Z,90.66
2023-03-26T09:37:36.127Z,90.96
2023-03-26T09:39:03.646Z,91.70
2023-03-26T09:40:40.869Z,90.16
2023-03-26T09:42:07.857Z,91.86
2023-03-26T09:43:28.178Z,89.41
2023-03-26T09:44:35.691Z,89.30
2023-03-26T09:46:12.422Z,90.92
2023-03-26T09:47:40.467Z,91.03
2023-03-26T09:49:17.463Z,89.43
2023-03-26T09:50:35.197Z,90.02
2023-03-26T09:51:48.366Z,88.91
2023-03-26T09:53:23.920Z,88.32
2023-03-26T09:54:49.763Z,87.63
2023-03-26T09:56:08.378Z,90.31
2023-03-26T09:57:34.831Z,89.84
2023-03-26T09:59:01.048Z,88.58
2023-03-26T10:00:41.033Z,87.57
2023-03-26T10:01:54.487Z,87.27
2023-03-26T10:03:14.304Z,87.07
2023-03-26T10:04:37.037Z,88.09
2023-03-26T10:05:57.346Z,88.64
2023-03-26T10:07:16.022Z,88.30
2023-03-26T10:08:23.334Z,87.47
2023-03-26T10:09:37.277Z,87.13
2023-03-26T10:10:43.204Z,87.38
2023-03-26T10:12:07.601Z,87.38
2023-03-26T10:13:18.087Z,88.08
2023-03-26T10:14:41.478Z,88.26
2023-03-26T10:15:59.813Z,87.46
2023-03-26T10:17:09.490Z,86.57
2023-03-26T10:18:28.019Z,84.20
2023-03-26T10:20:15.925Z,86.15
2023-03-26T10:21:38.256Z,85.60
2023-03-26T10:23:04.296Z,86.04
2023-03-26T10:24:53.786Z,84.89
2023-03-26T10:26:05.291Z,85.21
2023-03-26T10:27:28.537Z,83.74
2023-03-26T10:28:48.691Z,83.49
2023-03-26T10:30:25.117Z,84.59
2023-03-26T10:32:01.290Z,82.37
2023-03-26T10:33:30.484Z,83.55
2023-03-26T10:34:56.711Z,83.61
2023-03-26T10:36:16.719Z,83.70
2023-03-26T10:39:01.725Z,81.50
2023-03-26T10:40:16.240Z,81.54
2023-03-26T10:41:48.347Z,81.04
2023-03-26T10:43:15.575Z,80.50
2023-03-26T10:44:28.214Z,80.20
2023-03-26T10:45:41.686Z,81.23
2023-03-26T10:46:52.151Z,81.07
2023-03-26T10:48:15.815Z,79.47
2023-03-26T10:50:07.937Z,79.72
2023-03-26T10:51:36.444Z,78.22
2023-03-26T10:52:46.687Z,79.45
2023-03-26T10:53:48.192Z,79.58
2023-03-26T10:55:08.269Z,75.66
2023-03-26T10:56:26.305Z,76.17
2023-03-26T10:57:34.035Z,76.49
2023-03-26T10:58:48.939Z,77.72
2023-03-26T10:59:56.701Z,78.27
2023-03-26T11:01:42.614Z,77.49
2023-03-26T11:03:03.760Z,77.34
2023-03-26T11:04:36.182Z,75.06
2023-03-26T11:05:47.758Z,76.10
2023-03-26T11:07:02.776Z,76.45
2023-03-26T11:08:19.039Z,75.68
2023-03-26T11:10:03.266Z,76.77
2023-03-26T11:11:11.768Z,77.62
2023-03-26T11:12:27.348Z,77.59
2023-03-26T11:13:44.834Z,77.34
2023-03-26T11:14:56.693Z,76.40
2023-03-26T11:16:21.806Z,77.98
2023-03-26T11:17:47.761Z,77.59
2023-03-26T11:19:09.560Z,79.01
2023-03-26T11:20:32.109Z,78.87
2023-03-26T11:21:50.961Z,77.86
2023-03-26T11:23:13.843Z,78.29
2023-03-26T11:24:43.162Z,78.96
2023-03-26T11:26:05.916Z,77.83
2023-03-26T11:27:25.889Z,79.25
2023-03-26T11:29:03.982Z,78.94
2023-03-26T11:30:40.049Z,79.23
2023-03-26T11:32:17.479Z,78.91
2023-03-26T11:33:32.787Z,78.50
2023-03-26T11:34:48.926Z,80.19
2023-03-26T11:35:55.485Z,79.77
2023-03-26T11:36:58.813Z,78.59
2023-03-26T11:38:11.899Z,79.92
2023-03-26T11:39:22.120Z,80.71
2023-03-26T11:40:38.685Z,80.74
2023-03-26T11:41:40.540Z,80.13
2023-03-26T11:43:24.035Z,79.39
2023-03-26T11:44:37.802Z,79.04
2023-03-26T11:45:43.846Z,78.83
2023-03-26T11:46:48.170Z,79.58
2023-03-26T11:47:58.944Z,80.23
2023-03-26T11:49:03.866Z,78.28
2023-03-26T11:50:10.662Z,77.48
2023-03-26T11:51:22.986Z,79.78
2023-03-26T11:52:25.956Z,79.13
2023-03-26T11:53:31.090Z,78.92
2023-03-26T11:54:32.741Z,76.75
2023-03-26T11:55:38.536Z,77.04
2023-03-26T11:57:05.266Z,77.68
2023-03-26T11:58:37.184Z,78.99
2023-03-26T12:00:11.741Z,78.01
2023-03-26T12:01:25.215Z,78.81
2023-03-26T12:02:29.923Z,79.97
2023-03-26T12:03:31.680Z,80.86
2023-03-26T12:04:38.188Z,82.13
2023-03-26T12:05:49.330Z,80.58
2023-03-26T12:06:52.588Z,79.21
2023-03-26T12:08:03.184Z,78.75
2023-03-26T12:09:15.675Z,80.33
2023-03-26T12:10:37.680Z,79.80
2023-03-26T12:11:41.378Z,80.14
2023-03-26T12:12:45.970Z,78.44
2023-03-26T12:13:59.530Z,76.69
2023-03-26T12:15:01.245Z,76.30
2023-03-26T12:16:21.632Z,76.14
2023-03-26T12:17:37.751Z,77.57
2023-03-26T12:18:40.910Z,77.20
2023-03-26T12:19:45.062Z,78.34
2023-03-26T12:20:46.672Z,76.71
2023-03-26T12:21:52.512Z,78.44
2023-03-26T12:23:03.150Z,77.43
2023-03-26T12:24:26.765Z,77.91
2023-03-26T12:25:31.425Z,76.42
2023-03-26T12:26:40.521Z,76.71
2023-03-26T12:27:49.367Z,76.71
2023-03-26T12:28:51.562Z,76.30
2023-03-26T12:29:59.945Z,76.33
2023-03-26T12:31:03.978Z,76.32
2023-03-26T12:32:07.356Z,76.28
2023-03-26T12:33:22.092Z,76.71
2023-03-26T12:34:30.876Z,74.73
2023-03-26T12:35:35.714Z,73.71
2023-03-26T12:36:37.371Z,74.61
2023-03-26T12:37:41.147Z,74.65
2023-03-26T12:38:43.131Z,76.69
2023-03-26T12:40:08.733Z,75.63
2023-03-26T12:42:25.693Z,74.51
2023-03-26T12:44:43.310Z,72.77
2023-03-26T12:44:56.532Z,70.21
2023-03-26T12:45:21.179Z,68.92
2023-03-26T12:47:57.347Z,68.25
2023-03-26T12:48:03.368Z,68.29
2023-03-26T12:49:08.105Z,67.88
2023-03-26T12:50:14.341Z,67.76
2023-03-26T12:51:22.137Z,69.52
2023-03-26T12:52:35.944Z,69.85
2023-03-26T12:54:02.587Z,69.14
2023-03-26T12:55:27.852Z,68.69
2023-03-26T12:57:11.938Z,68.37
2023-03-26T12:58:45.416Z,66.91
2023-03-26T12:59:58.319Z,66.70
2023-03-26T13:01:40.661Z,66.87
2023-03-26T13:03:09.924Z,66.41
2023-03-26T13:04:27.503Z,67.96
2023-03-26T13:05:37.861Z,68.75
2023-03-26T13:07:01.098Z,70.03
2023-03-26T13:08:03.957Z,69.74
2023-03-26T13:09:33.391Z,68.60
2023-03-26T13:10:56.576Z,69.54
2023-03-26T13:12:28.262Z,69.59
2023-03-26T13:14:10.790Z,68.91
2023-03-26T13:15:44.754Z,67.09
2023-03-26T13:17:03.882Z,67.15
2023-03-26T13:18:22.236Z,67.53
2023-03-26T13:19:34.466Z,67.52
2023-03-26T13:21:00.827Z,66.52
2023-03-26T13:22:42.007Z,66.73
2023-03-26T13:23:59.616Z,69.17
2023-03-26T13:25:19.296Z,67.60
2023-03-26T13:26:31.900Z,67.63
2023-03-26T13:27:55.836Z,67.48
2023-03-26T13:29:09.627Z,68.59
2023-03-26T13:30:18.548Z,67.86
2023-03-26T13:31:35.289Z,69.81
2023-03-26T13:33:04.397Z,69.57
2023-03-26T13:34:42.794Z,70.37
2023-03-26T13:36:22.533Z,71.36
2023-03-26T13:37:31.924Z,71.06
2023-03-26T13:38:58.892Z,71.88
2023-03-26T13:40:27.067Z,71.92
2023-03-26T13:42:14.791Z,70.60
2023-03-26T13:43:21.901Z,70.08
2023-03-26T13:44:32.404Z,70.29
2023-03-26T13:45:44.785Z,68.19
2023-03-26T13:46:52.282Z,69.19
2023-03-26T13:47:57.151Z,69.26
2023-03-26T13:49:13.250Z,69.10
2023-03-26T13:50:20.576Z,69.20
2023-03-26T13:51:29.161Z,69.16
2023-03-26T13:52:43.639Z,67.29
2023-03-26T13:53:55.135Z,67.06
2023-03-26T13:55:16.907Z,64.38
2023-03-26T13:56:24.231Z,63.23
2023-03-26T13:57:37.399Z,64.68
2023-03-26T13:58:43.700Z,64.29
2023-03-26T13:59:56.137Z,63.06
2023-03-26T14:01:19.001Z,63.52
2023-03-26T14:02:37.016Z,63.19
2023-03-26T14:03:50.766Z,62.67
2023-03-26T14:05:21.994Z,64.72
2023-03-26T14:06:39.326Z,64.55
2023-03-26T14:07:46.835Z,61.76
2023-03-26T14:08:56.000Z,61.54
2023-03-26T14:10:21.470Z,59.44
2023-03-26T14:11:35.396Z,59.35
2023-03-26T14:12:54.016Z,60.46
2023-03-26T14:14:06.628Z,62.04
2023-03-26T14:15:18.163Z,62.50
2023-03-26T14:16:33.580Z,62.40
2023-03-26T14:17:41.097Z,63.46
2023-03-26T14:18:52.525Z,61.69
2023-03-26T14:20:18.528Z,61.39
2023-03-26T14:21:36.000Z,60.70
2023-03-26T14:23:02.211Z,62.09
2023-03-26T14:24:15.749Z,62.12
2023-03-26T14:25:52.107Z,63.32
2023-03-26T14:27:31.689Z,61.99
2023-03-26T14:28:58.380Z,61.21
2023-03-26T14:30:30.639Z,62.10
2023-03-26T14:31:42.820Z,62.24
2023-03-26T14:33:33.814Z,62.50
2023-03-26T14:34:41.309Z,63.61
2023-03-26T14:36:09.669Z,65.21
2023-03-26T14:37:11.219Z,65.10
2023-03-26T14:38:59.981Z,64.23
2023-03-26T14:40:44.505Z,64.38
2023-03-26T14:41:52.207Z,64.52
2023-03-26T14:43:07.634Z,63.95
2023-03-26T14:44:30.347Z,64.25
2023-03-26T14:46:07.650Z,65.00
2023-03-26T14:47:09.383Z,65.04
2023-03-26T14:48:40.346Z,66.30
2023-03-26T14:50:09.035Z,65.58
2023-03-26T14:51:28.773Z,66.59
2023-03-26T14:52:32.926Z,65.97
2023-03-26T14:53:38.781Z,66.99
2023-03-26T14:54:45.732Z,68.58
2023-03-26T14:56:09.344Z,69.24
2023-03-26T14:57:32.621Z,69.00
2023-03-26T14:58:55.688Z,67.47
2023-03-26T15:00:00.317Z,66.24
2023-03-26T15:01:22.270Z,65.35
2023-03-26T15:02:23.809Z,66.02
2023-03-26T15:03:40.569Z,66.27
2023-03-26T15:04:53.992Z,66.67
2023-03-26T15:05:58.537Z,67.98
2023-03-26T15:07:12.190Z,68.25
2023-03-26T15:08:38.815Z,66.68
2023-03-26T15:09:42.968Z,67.07
2023-03-26T15:11:03.182Z,67.79
2023-03-26T15:12:26.135Z,67.95
2023-03-26T15:13:55.615Z,66.61
2023-03-26T15:15:27.992Z,67.29
2023-03-26T15:16:55.827Z,67.11
2023-03-26T15:18:16.133Z,66.79
2023-03-26T15:19:39.157Z,67.89
2023-03-26T15:21:18.275Z,66.39
2023-03-26T15:22:44.494Z,66.89
2023-03-26T15:24:10.817Z,66.21
2023-03-26T15:25:34.248Z,66.74
2023-03-26T15:27:09.638Z,66.83
2023-03-26T15:28:56.132Z,67.16
2023-03-26T15:30:28.663Z,67.04
2023-03-26T15:31:45.493Z,68.13
2023-03-26T15:32:57.865Z,68.25
2023-03-26T15:33:59.432Z,67.57
2023-03-26T15:35:19.877Z,68.28
2023-03-26T15:36:59.105Z,69.04
2023-03-26T15:38:25.656Z,67.41
2023-03-26T15:39:43.475Z,68.17
2023-03-26T15:41:15.950Z,68.77
2023-03-26T15:42:32.404Z,70.10
2023-03-26T15:44:24.138Z,70.96
2023-03-26T15:45:36.136Z,71.03
2023-03-26T15:46:53.663Z,69.90
2023-03-26T15:48:16.889Z,70.28
2023-03-26T15:49:38.076Z,70.80
2023-03-26T15:51:04.167Z,70.55